ENRO

Røros Airport

Røros, Norway
METAR ENRO 140250Z AUTO 00000KT 1200NDV R13/P2000D R31/P2000N -SN SCT001/// OVC014/// M26/M28 Q1030
Observed Flight Rules
Dec-14 @ 02:50 UTC (49 minutes ago) Instrument Flight Rules
Visibility Clouds Conditions
1,996 meters
  • Scattered at 100' AGL
  • Overcast at 1,400' AGL
  • Light Snow
Temperatures Readings
Current -26°C / -15°F
Dewpoint -28°C / -18°F
Humidity 83%
Altimeter 30.41" Hg
Pressure 1030 hPa
Elevation 626
METAR ENRO 140250Z AUTO 00000KT 1200NDV R13/P2000D R31/P2000N -SN SCT001/// OVC014/// M26/M28 Q1030
Observed Flight Rules
Dec-14 @ 02:50 UTC
(49 minutes ago)
IFR
Clouds
  • Scattered at 100' AGL
  • Overcast at 1,400' AGL
Conditions
  • Light Snow
Temperature Dewpoint
-26°C / -15°F -28°C / -18°F
Humidity Altimeter Pressure
83% 30.41" Hg 1030 hPa